sensor_id;sensor_type;location;lat;lon;timestamp;temperature;humidity
26589;DHT22;14235;48.532;8.722;2022-12-07T09:04:46;3.30;99.90
26589;DHT22;14235;48.532;8.722;2022-12-07T09:07:12;3.30;99.90
26589;DHT22;14235;48.532;8.722;2022-12-07T09:09:38;3.10;99.90
26589;DHT22;14235;48.532;8.722;2022-12-07T09:12:03;3.10;99.90
26589;DHT22;14235;48.532;8.722;2022-12-07T09:14:29;3.10;99.90
26589;DHT22;14235;48.532;8.722;2022-12-07T09:16:55;3.10;99.90
26589;DHT22;14235;48.532;8.722;2022-12-07T09:19:29;3.20;99.90
26589;DHT22;14235;48.532;8.722;2022-12-07T09:21:55;3.20;99.90
26589;DHT22;14235;48.532;8.722;2022-12-07T09:24:20;3.20;99.90
26589;DHT22;14235;48.532;8.722;2022-12-07T09:26:46;3.30;99.90
26589;DHT22;14235;48.532;8.722;2022-12-07T09:29:11;3.30;99.90
26589;DHT22;14235;48.532;8.722;2022-12-07T09:31:37;3.30;99.90
26589;DHT22;14235;48.532;8.722;2022-12-07T09:34:03;3.40;99.90
26589;DHT22;14235;48.532;8.722;2022-12-07T09:36:30;3.40;99.90
26589;DHT22;14235;48.532;8.722;2022-12-07T09:38:55;3.50;99.90
26589;DHT22;14235;48.532;8.722;2022-12-07T09:41:23;3.50;99.90
26589;DHT22;14235;48.532;8.722;2022-12-07T09:43:49;3.50;99.90
26589;DHT22;14235;48.532;8.722;2022-12-07T09:46:16;3.50;99.90
26589;DHT22;14235;48.532;8.722;2022-12-07T09:48:44;3.60;99.90
26589;DHT22;14235;48.532;8.722;2022-12-07T09:51:22;3.60;99.90
26589;DHT22;14235;48.532;8.722;2022-12-07T09:53:48;3.70;99.90
26589;DHT22;14235;48.532;8.722;2022-12-07T09:56:15;3.70;99.90
26589;DHT22;14235;48.532;8.722;2022-12-07T09:58:42;3.80;99.90
26589;DHT22;14235;48.532;8.722;2022-12-07T10:03:36;3.80;99.90
26589;DHT22;14235;48.532;8.722;2022-12-07T10:06:04;3.90;99.90
26589;DHT22;14235;48.532;8.722;2022-12-07T10:08:31;4.00;99.90
26589;DHT22;14235;48.532;8.722;2022-12-07T10:10:57;3.90;99.90
26589;DHT22;14235;48.532;8.722;2022-12-07T10:13:43;4.20;99.90
26589;DHT22;14235;48.532;8.722;2022-12-07T10:16:40;5.40;99.90
26589;DHT22;14235;48.532;8.722;2022-12-07T10:24:25;4.80;99.90
26589;DHT22;14235;48.532;8.722;2022-12-07T10:26:52;4.10;99.90
26589;DHT22;14235;48.532;8.722;2022-12-07T10:29:24;4.00;99.90
26589;DHT22;14235;48.532;8.722;2022-12-07T10:32:32;4.10;99.90
26589;DHT22;14235;48.532;8.722;2022-12-07T10:35:23;4.30;99.90
26589;DHT22;14235;48.532;8.722;2022-12-07T10:37:50;4.40;99.90
26589;DHT22;14235;48.532;8.722;2022-12-07T10:40:36;4.10;99.90
26589;DHT22;14235;48.532;8.722;2022-12-07T10:43:04;4.10;99.90
26589;DHT22;14235;48.532;8.722;2022-12-07T10:45:30;4.20;99.90
26589;DHT22;14235;48.532;8.722;2022-12-07T10:48:04;4.30;99.90
26589;DHT22;14235;48.532;8.722;2022-12-07T10:50:58;4.30;99.90
26589;DHT22;14235;48.532;8.722;2022-12-07T10:56:17;4.40;99.90
26589;DHT22;14235;48.532;8.722;2022-12-07T11:01:41;4.40;99.90
26589;DHT22;14235;48.532;8.722;2022-12-07T11:15:19;4.60;99.90
26589;DHT22;14235;48.532;8.722;2022-12-07T11:18:01;4.60;99.90
26589;DHT22;14235;48.532;8.722;2022-12-07T11:36:46;4.80;99.90
26589;DHT22;14235;48.532;8.722;2022-12-07T11:39:25;4.30;99.90
26589;DHT22;14235;48.532;8.722;2022-12-07T11:42:01;4.80;99.90
26589;DHT22;14235;48.532;8.722;2022-12-07T11:47:11;4.70;99.90
26589;DHT22;14235;48.532;8.722;2022-12-07T11:52:22;5.20;99.90
26589;DHT22;14235;48.532;8.722;2022-12-07T11:54:52;4.70;99.90
26589;DHT22;14235;48.532;8.722;2022-12-07T11:57:28;4.90;99.90
26589;DHT22;14235;48.532;8.722;2022-12-07T12:00:02;4.70;99.90
26589;DHT22;14235;48.532;8.722;2022-12-07T12:02:37;4.90;99.90
26589;DHT22;14235;48.532;8.722;2022-12-07T12:05:22;4.70;99.90
26589;DHT22;14235;48.532;8.722;2022-12-07T12:07:58;4.70;99.90
26589;DHT22;14235;48.532;8.722;2022-12-07T12:16:10;4.90;99.90
26589;DHT22;14235;48.532;8.722;2022-12-07T12:21:27;4.90;99.90
26589;DHT22;14235;48.532;8.722;2022-12-07T12:24:22;5.90;99.90
26589;DHT22;14235;48.532;8.722;2022-12-07T12:26:51;5.00;99.90
26589;DHT22;14235;48.532;8.722;2022-12-07T12:29:32;4.90;99.90
26589;DHT22;14235;48.532;8.722;2022-12-07T12:33:00;5.00;99.90
26589;DHT22;14235;48.532;8.722;2022-12-07T12:35:19;5.00;99.90
26589;DHT22;14235;48.532;8.722;2022-12-07T12:37:46;4.80;99.90
26589;DHT22;14235;48.532;8.722;2022-12-07T12:42:46;4.70;99.90
26589;DHT22;14235;48.532;8.722;2022-12-07T12:45:28;5.00;99.90
26589;DHT22;14235;48.532;8.722;2022-12-07T12:48:03;5.10;99.90
26589;DHT22;14235;48.532;8.722;2022-12-07T12:50:34;5.10;99.90
26589;DHT22;14235;48.532;8.722;2022-12-07T12:56:55;5.10;99.90
26589;DHT22;14235;48.532;8.722;2022-12-07T12:59:23;5.10;99.90
26589;DHT22;14235;48.532;8.722;2022-12-07T13:04:57;5.10;99.90
26589;DHT22;14235;48.532;8.722;2022-12-07T13:15:38;5.20;99.90
26589;DHT22;14235;48.532;8.722;2022-12-07T13:23:26;5.10;99.90
26589;DHT22;14235;48.532;8.722;2022-12-07T13:28:30;5.00;99.90
26589;DHT22;14235;48.532;8.722;2022-12-07T13:31:23;5.00;99.90
26589;DHT22;14235;48.532;8.722;2022-12-07T13:33:50;5.00;99.90
26589;DHT22;14235;48.532;8.722;2022-12-07T13:36:22;4.80;99.90
26589;DHT22;14235;48.532;8.722;2022-12-07T13:38:52;5.20;99.90
26589;DHT22;14235;48.532;8.722;2022-12-07T13:41:21;4.80;99.90
26589;DHT22;14235;48.532;8.722;2022-12-07T13:46:17;4.70;99.90
26589;DHT22;14235;48.532;8.722;2022-12-07T13:48:46;4.80;99.90
26589;DHT22;14235;48.532;8.722;2022-12-07T13:51:24;4.80;99.90
26589;DHT22;14235;48.532;8.722;2022-12-07T13:53:59;5.10;99.90
26589;DHT22;14235;48.532;8.722;2022-12-07T13:56:31;4.90;99.90
26589;DHT22;14235;48.532;8.722;2022-12-07T13:58:58;4.90;99.90
26589;DHT22;14235;48.532;8.722;2022-12-07T14:01:24;4.90;99.90
26589;DHT22;14235;48.532;8.722;2022-12-07T14:03:50;6.10;99.90
26589;DHT22;14235;48.532;8.722;2022-12-07T14:06:26;5.00;99.90
26589;DHT22;14235;48.532;8.722;2022-12-07T14:09:20;5.00;99.90
26589;DHT22;14235;48.532;8.722;2022-12-07T14:11:48;5.00;99.90
26589;DHT22;14235;48.532;8.722;2022-12-07T14:14:18;4.80;99.90
26589;DHT22;14235;48.532;8.722;2022-12-07T14:17:02;4.70;99.90
26589;DHT22;14235;48.532;8.722;2022-12-07T14:19:59;4.90;99.90
26589;DHT22;14235;48.532;8.722;2022-12-07T14:22:34;4.80;99.90
26589;DHT22;14235;48.532;8.722;2022-12-07T14:25:22;4.60;99.90
26589;DHT22;14235;48.532;8.722;2022-12-07T14:27:51;4.80;99.90
26589;DHT22;14235;48.532;8.722;2022-12-07T14:30:18;4.80;99.90
26589;DHT22;14235;48.532;8.722;2022-12-07T14:32:45;4.80;99.90
26589;DHT22;14235;48.532;8.722;2022-12-07T14:35:15;4.60;99.90
26589;DHT22;14235;48.532;8.722;2022-12-07T14:37:43;4.50;99.90
26589;DHT22;14235;48.532;8.722;2022-12-07T14:40:13;5.00;99.90
26589;DHT22;14235;48.532;8.722;2022-12-07T14:42:39;4.70;99.90
26589;DHT22;14235;48.532;8.722;2022-12-07T14:45:06;4.60;99.90
26589;DHT22;14235;48.532;8.722;2022-12-07T14:47:32;4.80;99.90
26589;DHT22;14235;48.532;8.722;2022-12-07T14:49:57;3.80;99.90
26589;DHT22;14235;48.532;8.722;2022-12-07T14:52:28;4.50;99.90
26589;DHT22;14235;48.532;8.722;2022-12-07T14:54:55;4.50;99.90
26589;DHT22;14235;48.532;8.722;2022-12-07T14:57:21;4.50;99.90
26589;DHT22;14235;48.532;8.722;2022-12-07T14:59:47;4.70;99.90
26589;DHT22;14235;48.532;8.722;2022-12-07T15:02:13;4.50;99.90
26589;DHT22;14235;48.532;8.722;2022-12-07T15:04:39;4.50;99.90
26589;DHT22;14235;48.532;8.722;2022-12-07T15:07:09;4.60;99.90
26589;DHT22;14235;48.532;8.722;2022-12-07T15:09:36;4.60;99.90
26589;DHT22;14235;48.532;8.722;2022-12-07T15:12:01;4.70;99.90
26589;DHT22;14235;48.532;8.722;2022-12-07T15:14:28;4.70;99.90
26589;DHT22;14235;48.532;8.722;2022-12-07T15:16:54;4.50;99.90
26589;DHT22;14235;48.532;8.722;2022-12-07T15:19:21;4.70;99.90
26589;DHT22;14235;48.532;8.722;2022-12-07T15:21:52;4.60;99.90
26589;DHT22;14235;48.532;8.722;2022-12-07T15:24:18;5.40;99.90
26589;DHT22;14235;48.532;8.722;2022-12-07T15:26:43;3.70;99.90
26589;DHT22;14235;48.532;8.722;2022-12-07T15:29:10;4.50;99.90
26589;DHT22;14235;48.532;8.722;2022-12-07T15:31:36;4.90;99.90
26589;DHT22;14235;48.532;8.722;2022-12-07T15:34:02;4.20;99.90
26589;DHT22;14235;48.532;8.722;2022-12-07T15:36:29;4.10;99.90
26589;DHT22;14235;48.532;8.722;2022-12-07T15:38:55;4.10;99.90
26589;DHT22;14235;48.532;8.722;2022-12-07T15:41:21;4.10;99.90
26589;DHT22;14235;48.532;8.722;2022-12-07T15:43:47;3.80;99.90
26589;DHT22;14235;48.532;8.722;2022-12-07T15:46:37;3.90;99.90
26589;DHT22;14235;48.532;8.722;2022-12-07T15:49:08;4.10;99.90
26589;DHT22;14235;48.532;8.722;2022-12-07T15:51:34;4.10;99.90
26589;DHT22;14235;48.532;8.722;2022-12-07T15:54:00;4.20;99.90
26589;DHT22;14235;48.532;8.722;2022-12-07T15:56:25;4.00;99.90
26589;DHT22;14235;48.532;8.722;2022-12-07T15:58:51;4.20;99.90
26589;DHT22;14235;48.532;8.722;2022-12-07T16:01:19;4.00;99.90
26589;DHT22;14235;48.532;8.722;2022-12-07T16:03:45;4.10;99.90
26589;DHT22;14235;48.532;8.722;2022-12-07T16:06:14;4.10;99.90
26589;DHT22;14235;48.532;8.722;2022-12-07T16:08:46;4.10;99.90
26589;DHT22;14235;48.532;8.722;2022-12-07T16:11:12;4.00;99.90
26589;DHT22;14235;48.532;8.722;2022-12-07T16:13:38;4.20;99.90
26589;DHT22;14235;48.532;8.722;2022-12-07T16:16:08;4.00;99.90
26589;DHT22;14235;48.532;8.722;2022-12-07T16:18:35;4.10;99.90
26589;DHT22;14235;48.532;8.722;2022-12-07T16:21:00;3.80;99.90
26589;DHT22;14235;48.532;8.722;2022-12-07T16:23:26;4.10;99.90
26589;DHT22;14235;48.532;8.722;2022-12-07T16:25:52;4.00;99.90
26589;DHT22;14235;48.532;8.722;2022-12-07T16:28:18;3.80;99.90
26589;DHT22;14235;48.532;8.722;2022-12-07T16:30:44;4.90;99.90
26589;DHT22;14235;48.532;8.722;2022-12-07T16:33:10;3.80;99.90
26589;DHT22;14235;48.532;8.722;2022-12-07T16:35:38;3.60;99.90
26589;DHT22;14235;48.532;8.722;2022-12-07T16:38:06;3.50;99.90
26589;DHT22;14235;48.532;8.722;2022-12-07T16:40:32;3.50;99.90
26589;DHT22;14235;48.532;8.722;2022-12-07T16:42:58;3.60;99.90
26589;DHT22;14235;48.532;8.722;2022-12-07T16:45:23;4.60;99.90
26589;DHT22;14235;48.532;8.722;2022-12-07T16:47:49;3.60;99.90
26589;DHT22;14235;48.532;8.722;2022-12-07T16:50:14;3.70;99.90
26589;DHT22;14235;48.532;8.722;2022-12-07T16:52:40;3.90;99.90
26589;DHT22;14235;48.532;8.722;2022-12-07T16:55:06;3.70;99.90
26589;DHT22;14235;48.532;8.722;2022-12-07T16:57:32;3.90;99.90
26589;DHT22;14235;48.532;8.722;2022-12-07T16:59:58;4.10;99.90
26589;DHT22;14235;48.532;8.722;2022-12-07T17:02:24;3.80;99.90
26589;DHT22;14235;48.532;8.722;2022-12-07T17:04:50;3.90;99.90
26589;DHT22;14235;48.532;8.722;2022-12-07T17:07:16;3.80;99.90
26589;DHT22;14235;48.532;8.722;2022-12-07T17:09:41;3.70;99.90
26589;DHT22;14235;48.532;8.722;2022-12-07T17:12:07;3.70;99.90
26589;DHT22;14235;48.532;8.722;2022-12-07T17:14:33;3.70;99.90
26589;DHT22;14235;48.532;8.722;2022-12-07T17:17:16;3.60;99.90
26589;DHT22;14235;48.532;8.722;2022-12-07T17:19:42;3.70;99.90
26589;DHT22;14235;48.532;8.722;2022-12-07T17:22:08;3.70;99.90
26589;DHT22;14235;48.532;8.722;2022-12-07T17:24:36;3.50;99.90
26589;DHT22;14235;48.532;8.722;2022-12-07T17:27:02;3.70;99.90
26589;DHT22;14235;48.532;8.722;2022-12-07T17:29:27;3.70;99.90
26589;DHT22;14235;48.532;8.722;2022-12-07T17:31:53;3.50;99.90
26589;DHT22;14235;48.532;8.722;2022-12-07T17:34:18;3.40;99.90
26589;DHT22;14235;48.532;8.722;2022-12-07T17:36:44;3.30;99.90
26589;DHT22;14235;48.532;8.722;2022-12-07T17:39:13;3.30;99.90
26589;DHT22;14235;48.532;8.722;2022-12-07T17:41:39;3.60;99.90
26589;DHT22;14235;48.532;8.722;2022-12-07T17:44:24;3.30;99.90
26589;DHT22;14235;48.532;8.722;2022-12-07T17:46:51;3.40;99.90
26589;DHT22;14235;48.532;8.722;2022-12-07T17:49:22;3.20;99.90
26589;DHT22;14235;48.532;8.722;2022-12-07T17:51:48;3.10;99.90
26589;DHT22;14235;48.532;8.722;2022-12-07T17:54:33;3.10;99.90
26589;DHT22;14235;48.532;8.722;2022-12-07T17:56:58;3.10;99.90
26589;DHT22;14235;48.532;8.722;2022-12-07T17:59:24;2.90;99.90
26589;DHT22;14235;48.532;8.722;2022-12-07T18:01:50;2.80;99.90
26589;DHT22;14235;48.532;8.722;2022-12-07T18:04:16;2.80;99.90
26589;DHT22;14235;48.532;8.722;2022-12-07T18:06:42;2.80;99.90
26589;DHT22;14235;48.532;8.722;2022-12-07T18:09:08;2.80;99.90
26589;DHT22;14235;48.532;8.722;2022-12-07T18:11:34;2.80;99.90
26589;DHT22;14235;48.532;8.722;2022-12-07T18:14:00;2.70;99.90
26589;DHT22;14235;48.532;8.722;2022-12-07T18:16:27;2.60;99.90
26589;DHT22;14235;48.532;8.722;2022-12-07T18:18:53;2.50;99.90
26589;DHT22;14235;48.532;8.722;2022-12-07T18:21:22;2.50;99.90
26589;DHT22;14235;48.532;8.722;2022-12-07T18:23:51;2.60;99.90
26589;DHT22;14235;48.532;8.722;2022-12-07T18:26:19;2.60;99.90
26589;DHT22;14235;48.532;8.722;2022-12-07T18:28:45;2.70;99.90
26589;DHT22;14235;48.532;8.722;2022-12-07T18:31:12;2.60;99.90
26589;DHT22;14235;48.532;8.722;2022-12-07T18:33:38;2.50;99.90
26589;DHT22;14235;48.532;8.722;2022-12-07T18:36:05;2.50;99.90
26589;DHT22;14235;48.532;8.722;2022-12-07T18:38:31;2.70;99.90
26589;DHT22;14235;48.532;8.722;2022-12-07T18:40:56;2.40;99.90
26589;DHT22;14235;48.532;8.722;2022-12-07T18:43:23;2.40;99.90
26589;DHT22;14235;48.532;8.722;2022-12-07T18:45:52;2.40;99.90
26589;DHT22;14235;48.532;8.722;2022-12-07T18:48:20;2.50;99.90
26589;DHT22;14235;48.532;8.722;2022-12-07T18:50:47;3.10;99.90
26589;DHT22;14235;48.532;8.722;2022-12-07T18:53:23;2.40;99.90
26589;DHT22;14235;48.532;8.722;2022-12-07T18:55:48;2.50;99.90
26589;DHT22;14235;48.532;8.722;2022-12-07T18:58:14;2.20;99.90
26589;DHT22;14235;48.532;8.722;2022-12-07T19:00:39;2.30;99.90
26589;DHT22;14235;48.532;8.722;2022-12-07T19:03:05;2.20;99.90
26589;DHT22;14235;48.532;8.722;2022-12-07T19:05:31;2.10;99.90
26589;DHT22;14235;48.532;8.722;2022-12-07T19:07:56;1.90;99.90
26589;DHT22;14235;48.532;8.722;2022-12-07T19:10:22;1.80;99.90
26589;DHT22;14235;48.532;8.722;2022-12-07T19:12:47;1.70;99.90
26589;DHT22;14235;48.532;8.722;2022-12-07T19:15:14;2.00;99.90
26589;DHT22;14235;48.532;8.722;2022-12-07T19:17:40;1.70;99.90
26589;DHT22;14235;48.532;8.722;2022-12-07T19:20:08;1.80;99.90
26589;DHT22;14235;48.532;8.722;2022-12-07T19:22:34;2.00;99.90
26589;DHT22;14235;48.532;8.722;2022-12-07T19:25:00;1.90;99.90
26589;DHT22;14235;48.532;8.722;2022-12-07T19:27:28;1.80;99.90
26589;DHT22;14235;48.532;8.722;2022-12-07T19:29:54;2.00;99.90
26589;DHT22;14235;48.532;8.722;2022-12-07T19:32:20;2.00;99.90
26589;DHT22;14235;48.532;8.722;2022-12-07T19:34:46;2.00;99.90
26589;DHT22;14235;48.532;8.722;2022-12-07T19:37:13;2.00;99.90
26589;DHT22;14235;48.532;8.722;2022-12-07T19:39:42;1.90;99.90
26589;DHT22;14235;48.532;8.722;2022-12-07T19:42:12;2.00;99.90
26589;DHT22;14235;48.532;8.722;2022-12-07T19:44:38;1.90;99.90
26589;DHT22;14235;48.532;8.722;2022-12-07T19:47:04;2.00;99.90
26589;DHT22;14235;48.532;8.722;2022-12-07T19:49:31;1.90;99.90
26589;DHT22;14235;48.532;8.722;2022-12-07T19:52:02;1.90;99.90
26589;DHT22;14235;48.532;8.722;2022-12-07T19:54:29;2.00;99.90
26589;DHT22;14235;48.532;8.722;2022-12-07T19:56:55;1.90;99.90
26589;DHT22;14235;48.532;8.722;2022-12-07T19:59:23;1.90;99.90
26589;DHT22;14235;48.532;8.722;2022-12-07T20:01:49;1.90;99.90
26589;DHT22;14235;48.532;8.722;2022-12-07T20:04:18;1.90;99.90
26589;DHT22;14235;48.532;8.722;2022-12-07T20:06:48;1.80;99.90
26589;DHT22;14235;48.532;8.722;2022-12-07T20:09:14;4.10;99.90
26589;DHT22;14235;48.532;8.722;2022-12-07T20:11:40;2.00;99.90
26589;DHT22;14235;48.532;8.722;2022-12-07T20:14:24;1.80;99.90
26589;DHT22;14235;48.532;8.722;2022-12-07T20:16:50;1.90;99.90
26589;DHT22;14235;48.532;8.722;2022-12-07T20:19:17;2.10;99.90
26589;DHT22;14235;48.532;8.722;2022-12-07T20:21:43;1.70;99.90
26589;DHT22;14235;48.532;8.722;2022-12-07T20:24:12;1.80;99.90
26589;DHT22;14235;48.532;8.722;2022-12-07T20:26:38;1.80;99.90
26589;DHT22;14235;48.532;8.722;2022-12-07T20:29:05;1.80;99.90
26589;DHT22;14235;48.532;8.722;2022-12-07T20:31:31;1.70;99.90
26589;DHT22;14235;48.532;8.722;2022-12-07T20:33:57;1.70;99.90
26589;DHT22;14235;48.532;8.722;2022-12-07T20:36:25;1.80;99.90
26589;DHT22;14235;48.532;8.722;2022-12-07T20:38:50;1.70;99.90
26589;DHT22;14235;48.532;8.722;2022-12-07T20:41:16;1.90;99.90
26589;DHT22;14235;48.532;8.722;2022-12-07T20:44:00;1.70;99.90
26589;DHT22;14235;48.532;8.722;2022-12-07T20:46:27;1.60;99.90
26589;DHT22;14235;48.532;8.722;2022-12-07T20:48:53;1.50;99.90
26589;DHT22;14235;48.532;8.722;2022-12-07T20:51:19;1.60;99.90
26589;DHT22;14235;48.532;8.722;2022-12-07T20:53:45;1.50;99.90
26589;DHT22;14235;48.532;8.722;2022-12-07T20:56:22;1.40;99.90
26589;DHT22;14235;48.532;8.722;2022-12-07T20:58:47;1.50;99.90
26589;DHT22;14235;48.532;8.722;2022-12-07T21:01:13;1.50;99.90
26589;DHT22;14235;48.532;8.722;2022-12-07T21:03:39;1.40;99.90
26589;DHT22;14235;48.532;8.722;2022-12-07T21:06:05;1.40;99.90
26589;DHT22;14235;48.532;8.722;2022-12-07T21:08:30;1.60;99.90
26589;DHT22;14235;48.532;8.722;2022-12-07T21:10:56;1.50;99.90
26589;DHT22;14235;48.532;8.722;2022-12-07T21:13:22;1.60;99.90
26589;DHT22;14235;48.532;8.722;2022-12-07T21:15:47;1.40;99.90
26589;DHT22;14235;48.532;8.722;2022-12-07T21:18:13;2.60;99.90
26589;DHT22;14235;48.532;8.722;2022-12-07T21:20:38;2.40;99.90
26589;DHT22;14235;48.532;8.722;2022-12-07T21:23:04;1.40;99.90
26589;DHT22;14235;48.532;8.722;2022-12-07T21:25:30;1.30;99.90
26589;DHT22;14235;48.532;8.722;2022-12-07T21:27:55;1.20;99.90
26589;DHT22;14235;48.532;8.722;2022-12-07T21:30:23;1.40;99.90
26589;DHT22;14235;48.532;8.722;2022-12-07T21:32:49;1.20;99.90
26589;DHT22;14235;48.532;8.722;2022-12-07T21:35:15;1.20;99.90
26589;DHT22;14235;48.532;8.722;2022-12-07T21:37:40;1.40;99.90
26589;DHT22;14235;48.532;8.722;2022-12-07T21:40:06;1.20;99.90
26589;DHT22;14235;48.532;8.722;2022-12-07T21:42:32;1.40;99.90
26589;DHT22;14235;48.532;8.722;2022-12-07T21:44:58;1.20;99.90
26589;DHT22;14235;48.532;8.722;2022-12-07T21:47:23;0.70;99.90
26589;DHT22;14235;48.532;8.722;2022-12-07T21:49:49;1.30;99.90
26589;DHT22;14235;48.532;8.722;2022-12-07T21:52:14;1.10;99.90
26589;DHT22;14235;48.532;8.722;2022-12-07T21:54:40;1.40;99.90
26589;DHT22;14235;48.532;8.722;2022-12-07T21:57:07;1.10;99.90
26589;DHT22;14235;48.532;8.722;2022-12-07T21:59:32;1.30;99.90
26589;DHT22;14235;48.532;8.722;2022-12-07T22:01:58;1.80;99.90
26589;DHT22;14235;48.532;8.722;2022-12-07T22:04:25;1.40;99.90
26589;DHT22;14235;48.532;8.722;2022-12-07T22:06:52;1.40;99.90
26589;DHT22;14235;48.532;8.722;2022-12-07T22:09:18;1.30;99.90
26589;DHT22;14235;48.532;8.722;2022-12-07T22:11:45;1.10;99.90
26589;DHT22;14235;48.532;8.722;2022-12-07T22:14:10;1.20;99.90
26589;DHT22;14235;48.532;8.722;2022-12-07T22:16:54;1.10;99.90
26589;DHT22;14235;48.532;8.722;2022-12-07T22:19:21;1.10;99.90
26589;DHT22;14235;48.532;8.722;2022-12-07T22:21:47;1.20;99.90
26589;DHT22;14235;48.532;8.722;2022-12-07T22:24:13;1.20;99.90
26589;DHT22;14235;48.532;8.722;2022-12-07T22:26:40;1.40;99.90
26589;DHT22;14235;48.532;8.722;2022-12-07T22:29:06;1.30;99.90
26589;DHT22;14235;48.532;8.722;2022-12-07T22:31:32;1.30;99.90
26589;DHT22;14235;48.532;8.722;2022-12-07T22:33:57;1.20;99.90
26589;DHT22;14235;48.532;8.722;2022-12-07T22:36:23;1.40;99.90
26589;DHT22;14235;48.532;8.722;2022-12-07T22:38:49;1.40;99.90
26589;DHT22;14235;48.532;8.722;2022-12-07T22:41:27;1.40;99.90
26589;DHT22;14235;48.532;8.722;2022-12-07T22:43:54;1.50;99.90
26589;DHT22;14235;48.532;8.722;2022-12-07T22:46:19;1.20;99.90
26589;DHT22;14235;48.532;8.722;2022-12-07T22:48:45;1.40;99.90
26589;DHT22;14235;48.532;8.722;2022-12-07T22:51:23;1.50;99.90
26589;DHT22;14235;48.532;8.722;2022-12-07T22:53:49;1.40;99.90
26589;DHT22;14235;48.532;8.722;2022-12-07T22:56:15;1.40;99.90
26589;DHT22;14235;48.532;8.722;2022-12-07T22:58:41;1.30;99.90
26589;DHT22;14235;48.532;8.722;2022-12-07T23:01:08;1.20;99.90
26589;DHT22;14235;48.532;8.722;2022-12-07T23:03:34;1.30;99.90
26589;DHT22;14235;48.532;8.722;2022-12-07T23:06:05;1.30;99.90
26589;DHT22;14235;48.532;8.722;2022-12-07T23:08:31;1.30;99.90
26589;DHT22;14235;48.532;8.722;2022-12-07T23:10:57;1.10;99.90
26589;DHT22;14235;48.532;8.722;2022-12-07T23:13:22;1.10;99.90
26589;DHT22;14235;48.532;8.722;2022-12-07T23:16:14;1.10;99.90
26589;DHT22;14235;48.532;8.722;2022-12-07T23:18:41;1.00;99.90
26589;DHT22;14235;48.532;8.722;2022-12-07T23:21:08;0.80;99.90
